createdAt,value
2018-05-08T00:00:11.080Z,51.76
2018-05-08T00:01:11.250Z,48.10
2018-05-08T00:02:11.416Z,50.54
2018-05-08T00:03:11.582Z,47.85
2018-05-08T00:04:11.746Z,57.86
2018-05-08T00:05:11.912Z,53.22
2018-05-08T00:06:12.084Z,49.07
2018-05-08T00:07:12.246Z,43.95
2018-05-08T00:08:12.411Z,51.03
2018-05-08T00:09:12.582Z,61.52
2018-05-08T00:10:12.744Z,53.22
2018-05-08T00:11:12.910Z,52.00
2018-05-08T00:12:13.075Z,46.14
2018-05-08T00:13:13.241Z,50.54
2018-05-08T00:16:55.688Z,60.79
2018-05-08T00:17:55.853Z,61.04
2018-05-08T00:18:56.017Z,47.61
2018-05-08T00:19:56.192Z,46.88
2018-05-08T00:20:56.348Z,59.08
2018-05-08T00:21:56.514Z,49.80
2018-05-08T00:22:56.677Z,52.00
2018-05-08T00:23:56.845Z,50.29
2018-05-08T00:24:57.009Z,52.73
2018-05-08T00:25:57.175Z,55.42
2018-05-08T00:26:57.342Z,54.20
2018-05-08T00:27:57.508Z,48.34
2018-05-08T00:28:57.671Z,47.85
2018-05-08T00:29:57.838Z,47.36
2018-05-08T00:33:40.547Z,55.91
2018-05-08T00:34:40.716Z,56.88
2018-05-08T00:35:40.876Z,50.54
2018-05-08T00:36:41.046Z,54.69
2018-05-08T00:37:41.222Z,53.71
2018-05-08T00:38:41.394Z,50.54
2018-05-08T00:39:41.560Z,50.05
2018-05-08T00:40:41.726Z,50.29
2018-05-08T00:41:41.907Z,51.03
2018-05-08T00:42:42.054Z,55.42
2018-05-08T00:43:42.218Z,54.93
2018-05-08T00:44:42.384Z,52.73
2018-05-08T00:45:42.553Z,53.96
2018-05-08T00:46:42.717Z,50.54
2018-05-08T00:50:25.441Z,49.80
2018-05-08T00:51:25.605Z,48.58
2018-05-08T00:52:25.772Z,49.07
2018-05-08T00:53:25.937Z,47.85
2018-05-08T00:54:26.103Z,47.12
2018-05-08T00:55:26.270Z,48.10
2018-05-08T00:56:26.435Z,48.34
2018-05-08T00:57:26.601Z,54.69
2018-05-08T00:58:26.767Z,53.96
2018-05-08T00:59:26.939Z,52.00
2018-05-08T01:00:27.098Z,47.36
2018-05-08T01:01:27.265Z,51.03
2018-05-08T01:02:27.431Z,52.00
2018-05-08T01:03:27.592Z,53.71
2018-05-08T01:07:10.019Z,49.07
2018-05-08T01:08:10.185Z,49.32
2018-05-08T01:09:10.348Z,47.36
2018-05-08T01:10:10.514Z,61.28
2018-05-08T01:11:10.682Z,60.06
2018-05-08T01:12:10.846Z,48.10
2018-05-08T01:13:11.013Z,52.00
2018-05-08T01:14:11.179Z,63.96
2018-05-08T01:15:11.346Z,53.96
2018-05-08T01:18:54.063Z,49.07
2018-05-08T01:19:54.227Z,49.32
2018-05-08T01:20:54.393Z,52.49
2018-05-08T01:21:54.556Z,49.07
2018-05-08T01:22:54.720Z,53.47
2018-05-08T01:23:54.882Z,57.37
2018-05-08T01:24:55.047Z,50.29
2018-05-08T01:25:55.212Z,62.74
2018-05-08T01:26:55.379Z,58.84
2018-05-08T01:30:38.111Z,49.80
2018-05-08T01:31:38.276Z,51.03
2018-05-08T01:32:38.437Z,48.10
2018-05-08T01:33:38.603Z,50.54
2018-05-08T01:34:38.770Z,48.34
2018-05-08T01:35:38.931Z,62.74
2018-05-08T01:36:39.096Z,52.00
2018-05-08T01:37:39.265Z,49.80
2018-05-08T01:38:39.427Z,61.28
2018-05-08T01:42:21.852Z,47.12
2018-05-08T01:43:22.104Z,52.73
2018-05-08T01:44:22.180Z,51.51
2018-05-08T01:45:22.346Z,51.76
2018-05-08T01:46:22.513Z,47.36
2018-05-08T01:47:22.677Z,48.83
2018-05-08T01:48:22.840Z,47.85
2018-05-08T01:49:23.005Z,50.54
2018-05-08T01:50:23.170Z,51.27
2018-05-08T01:54:05.883Z,68.60
2018-05-08T01:55:06.048Z,56.40
2018-05-08T01:56:06.214Z,52.00
2018-05-08T01:57:06.379Z,47.85
2018-05-08T01:58:06.547Z,46.14
2018-05-08T01:59:06.708Z,46.39
2018-05-08T02:00:06.874Z,48.58
2018-05-08T02:01:07.038Z,49.32
2018-05-08T02:02:07.202Z,76.90
2018-05-08T02:05:49.932Z,62.01
2018-05-08T02:06:50.096Z,55.66
2018-05-08T02:07:50.261Z,54.20
2018-05-08T02:08:50.433Z,64.70
2018-05-08T02:09:50.591Z,49.32
2018-05-08T02:10:51.503Z,50.29
2018-05-08T02:11:50.913Z,54.20
2018-05-08T02:12:51.078Z,52.49
2018-05-08T02:13:51.244Z,50.05
2018-05-08T02:17:33.960Z,54.69
2018-05-08T02:18:34.124Z,55.91
2018-05-08T02:19:34.290Z,52.98
2018-05-08T02:20:34.456Z,52.25
2018-05-08T02:21:34.619Z,50.54
2018-05-08T02:22:34.785Z,53.22
2018-05-08T02:23:34.947Z,52.25
2018-05-08T02:24:35.110Z,54.20
2018-05-08T02:25:35.278Z,54.44
2018-05-08T02:29:18.000Z,46.88
2018-05-08T02:30:18.173Z,45.90
2018-05-08T02:31:18.330Z,47.85
2018-05-08T02:32:18.497Z,54.69
2018-05-08T02:33:18.658Z,49.80
2018-05-08T02:34:18.835Z,50.78
2018-05-08T02:35:18.989Z,66.16
2018-05-08T02:36:19.157Z,53.47
2018-05-08T02:37:19.394Z,56.40
2018-05-08T02:41:01.752Z,52.73
2018-05-08T02:42:01.916Z,54.69
2018-05-08T02:43:02.081Z,55.18
2018-05-08T02:44:02.245Z,59.08
2018-05-08T02:45:02.409Z,71.29
2018-05-08T02:46:02.572Z,60.06
2018-05-08T02:47:02.738Z,61.04
2018-05-08T02:48:02.903Z,58.84
2018-05-08T02:49:03.066Z,63.23
2018-05-08T02:50:03.232Z,60.30
2018-05-08T02:51:03.396Z,51.03
2018-05-08T02:52:03.564Z,60.30
2018-05-08T02:53:03.726Z,50.54
2018-05-08T02:54:03.889Z,60.06
2018-05-08T03:00:14.664Z,51.76
2018-05-08T03:01:14.827Z,56.40
2018-05-08T03:02:14.984Z,52.73
2018-05-08T03:03:15.147Z,63.72
2018-05-08T03:04:15.312Z,54.69
2018-05-08T03:05:15.475Z,55.66
2018-05-08T03:06:15.639Z,53.22
2018-05-08T03:07:15.804Z,54.20
2018-05-08T03:08:15.968Z,54.20
2018-05-08T03:11:58.701Z,59.08
2018-05-08T03:12:58.868Z,73.73
2018-05-08T03:13:59.027Z,54.69
2018-05-08T03:14:59.185Z,62.50
2018-05-08T03:15:59.354Z,64.94
2018-05-08T03:16:59.514Z,56.88
2018-05-08T03:17:59.678Z,57.86
2018-05-08T03:18:59.844Z,60.79
2018-05-08T03:20:00.009Z,71.78
2018-05-08T03:21:00.173Z,59.81
2018-05-08T03:22:00.339Z,66.16
2018-05-08T03:23:00.502Z,66.65
2018-05-08T03:24:00.665Z,59.33
2018-05-08T03:25:00.833Z,68.12
2018-05-08T03:28:43.259Z,71.53
2018-05-08T03:29:43.424Z,66.16
2018-05-08T03:30:43.589Z,80.57
2018-05-08T03:31:43.752Z,93.75
2018-05-08T03:32:43.917Z,70.07
2018-05-08T03:33:44.088Z,73.73
2018-05-08T03:34:44.250Z,64.94
2018-05-08T03:35:44.413Z,72.75
2018-05-08T03:36:44.578Z,72.51
2018-05-08T03:37:44.742Z,74.22
2018-05-08T03:38:44.903Z,70.56
2018-05-08T03:39:45.068Z,64.70
2018-05-08T03:40:45.229Z,75.93
2018-05-08T03:41:45.390Z,63.23
2018-05-08T03:45:28.115Z,72.27
2018-05-08T03:46:28.274Z,65.67
2018-05-08T03:47:28.438Z,71.78
2018-05-08T03:48:28.602Z,58.59
2018-05-08T03:49:28.768Z,70.31
2018-05-08T03:50:28.931Z,68.12
2018-05-08T03:51:29.094Z,59.08
2018-05-08T03:52:29.256Z,63.96
2018-05-08T03:53:29.422Z,61.77
2018-05-08T03:57:12.138Z,65.19
2018-05-08T03:58:12.299Z,57.13
2018-05-08T03:59:12.467Z,68.85
2018-05-08T04:00:12.629Z,71.29
2018-05-08T04:01:12.795Z,65.92
2018-05-08T04:02:12.955Z,75.44
2018-05-08T04:03:13.123Z,72.27
2018-05-08T04:04:13.283Z,66.89
2018-05-08T04:05:13.448Z,62.50
2018-05-08T04:08:55.871Z,71.04
2018-05-08T04:09:56.033Z,61.28
2018-05-08T04:10:56.198Z,56.40
2018-05-08T04:11:56.366Z,57.86
2018-05-08T04:12:56.530Z,58.84
2018-05-08T04:13:56.721Z,62.74
2018-05-08T04:14:56.883Z,68.85
2018-05-08T04:15:57.049Z,65.67
2018-05-08T04:16:57.206Z,66.89
2018-05-08T04:17:57.368Z,64.45
2018-05-08T04:18:57.533Z,66.41
2018-05-08T04:19:57.697Z,59.08
2018-05-08T04:20:57.871Z,74.71
2018-05-08T04:21:58.023Z,65.19
2018-05-08T04:25:40.437Z,64.94
2018-05-08T04:26:40.599Z,68.60
2018-05-08T04:27:40.774Z,73.97
2018-05-08T04:28:40.936Z,77.15
2018-05-08T04:29:41.100Z,63.48
2018-05-08T04:30:48.715Z,76.90
2018-05-08T04:31:41.371Z,68.60
2018-05-08T04:32:41.537Z,55.91
2018-05-08T04:33:42.331Z,59.33
2018-05-08T04:34:41.875Z,59.81
2018-05-08T04:38:17.093Z,61.04
2018-05-08T04:39:17.272Z,77.39
2018-05-08T04:40:17.423Z,69.58
2018-05-08T04:41:17.579Z,69.09
2018-05-08T04:42:17.746Z,70.07
2018-05-08T04:43:17.911Z,65.19
2018-05-08T04:44:18.073Z,70.80
2018-05-08T04:45:18.247Z,66.16
2018-05-08T04:46:18.445Z,68.36
2018-05-08T04:49:50.869Z,68.85
2018-05-08T04:50:51.032Z,65.67
2018-05-08T04:51:51.199Z,66.41
2018-05-08T04:52:51.367Z,76.17
2018-05-08T04:53:51.517Z,62.74
2018-05-08T04:54:51.702Z,65.19
2018-05-08T04:55:51.870Z,66.65
2018-05-08T04:56:52.012Z,68.12
2018-05-08T04:57:52.203Z,69.58
2018-05-08T04:58:52.351Z,69.58
2018-05-08T04:59:52.523Z,73.00
2018-05-08T05:00:52.812Z,80.08
2018-05-08T05:01:52.828Z,66.65
2018-05-08T05:02:52.980Z,63.96
2018-05-08T05:06:35.857Z,63.96
2018-05-08T05:07:36.037Z,68.12
2018-05-08T05:08:36.187Z,71.29
2018-05-08T05:09:36.355Z,77.15
2018-05-08T05:10:37.305Z,75.20
2018-05-08T05:11:36.714Z,66.16
2018-05-08T05:12:36.907Z,69.34
2018-05-08T05:13:44.872Z,80.08
2018-05-08T05:14:37.265Z,64.45
2018-05-08T05:15:37.430Z,79.35
2018-05-08T05:16:37.607Z,82.52
2018-05-08T05:17:37.760Z,69.34
2018-05-08T05:18:37.922Z,68.60
2018-05-08T05:19:38.085Z,65.92
2018-05-08T05:20:38.250Z,71.78
2018-05-08T05:21:38.562Z,75.44
2018-05-08T05:22:38.666Z,79.10
2018-05-08T05:23:38.768Z,80.08
2018-05-08T05:24:38.931Z,72.02
2018-05-08T05:25:40.803Z,80.08
2018-05-08T05:26:39.845Z,67.63
2018-05-08T05:27:39.376Z,73.24
2018-05-08T05:31:12.143Z,80.32
2018-05-08T05:32:12.321Z,81.54
2018-05-08T05:33:12.492Z,86.43
2018-05-08T05:34:12.668Z,72.51
2018-05-08T05:35:20.535Z,75.93
2018-05-08T05:36:12.998Z,73.49
2018-05-08T05:37:13.176Z,75.20
2018-05-08T05:38:13.333Z,70.07
2018-05-08T05:39:13.499Z,70.80
2018-05-08T05:40:13.664Z,76.17
2018-05-08T05:41:13.829Z,65.92
2018-05-08T05:42:13.991Z,75.68
2018-05-08T05:43:14.157Z,80.57
2018-05-08T05:44:14.338Z,78.61
2018-05-08T05:45:14.495Z,70.07
2018-05-08T05:46:14.675Z,74.95
2018-05-08T05:47:14.830Z,78.37
2018-05-08T05:48:14.994Z,80.08
2018-05-08T05:49:15.155Z,72.75
2018-05-08T05:53:47.759Z,75.68
2018-05-08T05:54:47.923Z,66.41
2018-05-08T05:55:48.093Z,68.85
2018-05-08T05:56:55.716Z,77.39
2018-05-08T05:57:48.382Z,73.49
2018-05-08T05:58:48.545Z,69.09
2018-05-08T05:59:48.712Z,71.78
2018-05-08T06:00:48.881Z,72.75
2018-05-08T06:01:49.048Z,66.16
2018-05-08T06:02:49.217Z,66.89
2018-05-08T06:03:49.393Z,66.16
2018-05-08T06:04:49.554Z,68.12
2018-05-08T06:05:49.715Z,65.43
2018-05-08T06:06:49.891Z,75.20
2018-05-08T06:07:50.052Z,71.29
2018-05-08T06:08:50.219Z,71.78
2018-05-08T06:09:50.392Z,68.85
2018-05-08T06:10:50.566Z,66.65
2018-05-08T06:14:22.966Z,69.34
2018-05-08T06:15:23.129Z,83.98
2018-05-08T06:16:23.297Z,84.72
2018-05-08T06:17:23.456Z,65.67
2018-05-08T06:18:23.643Z,81.05
2018-05-08T06:19:23.807Z,84.47
2018-05-08T06:20:24.018Z,75.68
2018-05-08T06:21:24.144Z,64.21
2018-05-08T06:22:24.313Z,84.47
2018-05-08T06:25:56.763Z,79.35
2018-05-08T06:27:04.897Z,65.67
2018-05-08T06:27:57.060Z,67.38
2018-05-08T06:28:57.227Z,70.56
2018-05-08T06:29:57.384Z,75.20
2018-05-08T06:30:57.544Z,79.10
2018-05-08T06:31:57.723Z,76.42
2018-05-08T06:32:57.886Z,79.35
2018-05-08T06:33:58.052Z,75.44
2018-05-08T06:34:58.220Z,73.24
2018-05-08T06:35:58.385Z,78.61
2018-05-08T06:36:58.551Z,67.38
2018-05-08T06:37:58.725Z,68.12
2018-05-08T06:38:58.937Z,78.61
2018-05-08T06:39:59.128Z,71.29
2018-05-08T06:43:31.509Z,68.85
2018-05-08T06:44:31.689Z,72.51
2018-05-08T06:45:31.864Z,69.09
2018-05-08T06:46:32.031Z,71.53
2018-05-08T06:47:32.376Z,76.17
2018-05-08T06:48:32.377Z,66.41
2018-05-08T06:49:32.548Z,76.17
2018-05-08T06:50:32.733Z,77.39
2018-05-08T06:51:32.900Z,68.12
2018-05-08T06:52:33.073Z,73.73
2018-05-08T06:53:33.262Z,65.67
2018-05-08T06:54:33.428Z,64.21
2018-05-08T06:55:33.591Z,74.95
2018-05-08T06:56:33.770Z,72.51
2018-05-08T07:00:16.209Z,73.97
2018-05-08T07:01:16.414Z,69.34
2018-05-08T07:02:16.579Z,75.68
2018-05-08T07:03:16.717Z,73.73
2018-05-08T07:04:17.555Z,68.85
2018-05-08T07:05:16.980Z,67.63
2018-05-08T07:06:17.157Z,73.49
2018-05-08T07:07:17.321Z,64.70
2018-05-08T07:08:17.480Z,69.82
2018-05-08T07:09:25.635Z,66.16
2018-05-08T07:10:18.582Z,71.53
2018-05-08T07:11:17.875Z,68.85
2018-05-08T07:12:18.046Z,73.00
2018-05-08T07:13:26.189Z,67.14
2018-05-08T07:14:18.383Z,65.92
2018-05-08T07:15:18.514Z,70.56
2018-05-08T07:16:18.738Z,66.89
2018-05-08T07:17:18.849Z,69.82
2018-05-08T07:18:19.014Z,73.00
2018-05-08T07:19:19.180Z,80.32
2018-05-08T07:20:19.348Z,81.54
2018-05-08T07:21:19.528Z,72.27
2018-05-08T07:22:19.697Z,66.16
2018-05-08T07:23:19.872Z,74.95
2018-05-08T07:27:02.603Z,77.39
2018-05-08T07:28:02.792Z,68.12
2018-05-08T07:29:02.941Z,67.87
2018-05-08T07:30:03.116Z,70.31
2018-05-08T07:31:03.278Z,69.82
2018-05-08T07:32:03.447Z,70.80
2018-05-08T07:33:03.615Z,67.14
2018-05-08T07:34:03.786Z,67.87
2018-05-08T07:35:03.956Z,71.04
2018-05-08T07:36:04.125Z,64.70
2018-05-08T07:37:04.294Z,73.49
2018-05-08T07:38:04.464Z,74.71
2018-05-08T07:39:04.632Z,65.92
2018-05-08T07:40:04.798Z,66.16
2018-05-08T07:43:55.232Z,80.08
2018-05-08T07:44:47.395Z,72.51
2018-05-08T07:45:48.147Z,69.58
2018-05-08T07:46:47.703Z,68.85
2018-05-08T07:47:47.871Z,66.41
2018-05-08T07:48:48.041Z,67.14
2018-05-08T07:49:48.217Z,67.87
2018-05-08T07:50:48.378Z,66.65
2018-05-08T07:51:48.592Z,66.65
2018-05-08T07:52:48.717Z,70.31
2018-05-08T07:53:48.881Z,72.02
2018-05-08T07:54:49.065Z,63.48
2018-05-08T07:55:49.247Z,70.31
2018-05-08T07:56:49.415Z,69.82
2018-05-08T07:57:49.575Z,77.15
2018-05-08T07:58:49.766Z,73.24
2018-05-08T08:02:23.531Z,73.24
2018-05-08T08:03:23.851Z,70.80
2018-05-08T08:04:23.943Z,82.76
2018-05-08T08:05:24.058Z,72.27
2018-05-08T08:06:31.895Z,71.53
2018-05-08T08:07:24.494Z,66.16
2018-05-08T08:08:24.602Z,72.27
2018-05-08T08:09:24.854Z,70.07
2018-05-08T08:10:24.929Z,66.41
2018-05-08T08:11:25.105Z,73.73
2018-05-08T08:12:25.308Z,67.63
2018-05-08T08:13:25.442Z,80.32
2018-05-08T08:14:25.613Z,75.68
2018-05-08T08:15:25.783Z,65.43
2018-05-08T08:16:33.895Z,67.14
2018-05-08T08:17:26.143Z,65.19
2018-05-08T08:18:26.269Z,71.78
2018-05-08T08:19:26.428Z,64.45
2018-05-08T08:20:26.580Z,72.02
2018-05-08T08:21:26.753Z,67.14
2018-05-08T08:22:26.919Z,67.87
2018-05-08T08:23:27.092Z,74.71
2018-05-08T08:24:27.266Z,72.75
2018-05-08T08:25:27.432Z,79.83
2018-05-08T08:26:27.612Z,63.48
2018-05-08T08:27:27.783Z,69.58
2018-05-08T08:28:28.017Z,71.29
2018-05-08T08:29:28.112Z,74.95
2018-05-08T08:30:28.288Z,73.49
2018-05-08T08:34:10.925Z,71.04
2018-05-08T08:35:11.098Z,72.02
2018-05-08T08:36:11.276Z,64.94
2018-05-08T08:37:11.448Z,75.93
2018-05-08T08:38:11.617Z,71.78
2018-05-08T08:39:11.800Z,65.67
2018-05-08T08:40:11.955Z,66.89
2018-05-08T08:41:12.136Z,68.12
2018-05-08T08:42:12.305Z,63.23
2018-05-08T08:45:45.179Z,66.89
2018-05-08T08:46:45.350Z,73.97
2018-05-08T08:47:45.599Z,66.16
2018-05-08T08:48:45.690Z,71.29
2018-05-08T08:49:45.867Z,69.58
2018-05-08T08:50:46.033Z,74.71
2018-05-08T08:51:46.203Z,68.85
2018-05-08T08:52:46.376Z,67.38
2018-05-08T08:53:46.549Z,86.91
2018-05-08T08:57:28.997Z,73.24
2018-05-08T08:58:29.180Z,71.78
2018-05-08T08:59:29.347Z,70.80
2018-05-08T09:00:29.533Z,73.97
2018-05-08T09:01:29.685Z,72.51
2018-05-08T09:02:29.856Z,71.78
2018-05-08T09:03:30.034Z,71.29
2018-05-08T09:04:30.201Z,72.51
2018-05-08T09:05:30.355Z,74.95
2018-05-08T09:06:30.523Z,67.87
2018-05-08T09:07:30.697Z,71.53
2018-05-08T09:08:31.865Z,64.70
2018-05-08T09:09:31.031Z,66.89
2018-05-08T09:10:31.202Z,72.02
2018-05-08T09:14:06.503Z,73.97
2018-05-08T09:15:03.793Z,76.66
2018-05-08T09:16:03.968Z,68.85
2018-05-08T09:17:04.139Z,72.02
2018-05-08T09:18:04.308Z,72.02
2018-05-08T09:19:04.475Z,69.09
2018-05-08T09:20:04.650Z,71.78
2018-05-08T09:21:04.825Z,69.09
2018-05-08T09:22:12.640Z,75.93
2018-05-08T09:23:05.187Z,65.19
2018-05-08T09:24:05.356Z,71.53
2018-05-08T09:25:05.530Z,72.27
2018-05-08T09:26:05.693Z,70.56
2018-05-08T09:27:05.955Z,68.60
2018-05-08T09:28:06.027Z,68.60
2018-05-08T09:29:06.205Z,69.09
2018-05-08T09:32:38.482Z,86.43
2018-05-08T09:33:38.784Z,72.51
2018-05-08T09:34:38.900Z,65.43
2018-05-08T09:38:11.133Z,70.31
2018-05-08T09:39:11.303Z,66.65
2018-05-08T09:40:11.485Z,79.10
2018-05-08T09:41:11.661Z,91.55
2018-05-08T09:42:11.888Z,73.97
2018-05-08T09:43:19.999Z,75.20
2018-05-08T09:44:12.162Z,69.58
2018-05-08T09:45:12.333Z,76.42
2018-05-08T09:46:12.500Z,78.61
2018-05-08T09:47:20.361Z,73.00
2018-05-08T09:48:12.760Z,71.29
2018-05-08T09:49:12.971Z,66.16
2018-05-08T09:50:13.117Z,68.36
2018-05-08T09:51:13.271Z,73.24
2018-05-08T09:52:13.444Z,72.51
2018-05-08T09:53:13.611Z,67.87
2018-05-08T09:54:13.809Z,66.16
2018-05-08T09:55:13.974Z,73.97
2018-05-08T09:56:14.141Z,73.97
2018-05-08T09:57:14.320Z,79.10
2018-05-08T09:58:14.489Z,70.80
2018-05-08T09:59:14.663Z,72.75
2018-05-08T10:00:14.828Z,74.71
2018-05-08T10:01:15.000Z,76.17
2018-05-08T10:04:47.920Z,65.67
2018-05-08T10:05:48.033Z,72.02
2018-05-08T10:06:55.370Z,73.24
2018-05-08T10:07:48.409Z,66.89
2018-05-08T10:08:49.329Z,69.09
2018-05-08T10:09:48.757Z,69.82
2018-05-08T10:10:48.919Z,66.41
2018-05-08T10:11:49.127Z,70.31
2018-05-08T10:12:49.257Z,68.85
2018-05-08T10:13:58.369Z,69.09
2018-05-08T10:14:49.651Z,69.82
2018-05-08T10:15:49.823Z,71.04
2018-05-08T10:16:49.983Z,70.31
2018-05-08T10:17:50.154Z,72.02
2018-05-08T10:18:50.331Z,67.38
2018-05-08T10:19:50.497Z,66.16
2018-05-08T10:20:50.675Z,64.70
2018-05-08T10:21:50.841Z,69.34
2018-05-08T10:22:51.013Z,64.21
2018-05-08T10:23:51.182Z,75.44
2018-05-08T10:24:59.010Z,69.09
2018-05-08T10:25:51.561Z,70.56
2018-05-08T10:26:51.840Z,66.89
2018-05-08T10:27:51.893Z,68.85
2018-05-08T10:28:59.517Z,81.30
2018-05-08T10:29:52.901Z,77.39
2018-05-08T10:30:52.324Z,78.37
2018-05-08T10:31:52.495Z,75.68
2018-05-08T10:32:52.750Z,69.58
2018-05-08T10:33:53.398Z,69.58
2018-05-08T10:34:53.063Z,75.20
2018-05-08T10:35:53.243Z,69.09
2018-05-08T10:36:53.410Z,75.44
2018-05-08T10:37:53.579Z,73.73
2018-05-08T10:38:53.751Z,67.63
2018-05-08T10:42:27.204Z,70.56
2018-05-08T10:43:27.376Z,70.80
2018-05-08T10:44:27.546Z,68.60
2018-05-08T10:45:27.720Z,69.34
2018-05-08T10:46:28.624Z,73.73
2018-05-08T10:47:28.077Z,71.78
2018-05-08T10:48:28.254Z,69.82
2018-05-08T10:49:35.644Z,66.65
2018-05-08T10:50:36.039Z,76.42
2018-05-08T10:51:28.724Z,65.92
2018-05-08T10:52:28.891Z,70.56
2018-05-08T10:53:29.067Z,66.89
2018-05-08T10:54:29.315Z,73.24
2018-05-08T10:55:29.377Z,68.85
2018-05-08T10:56:31.103Z,70.31
2018-05-08T10:57:29.658Z,70.80
2018-05-08T10:58:29.868Z,73.97
2018-05-08T10:59:30.041Z,78.86
2018-05-08T11:00:31.104Z,72.51
2018-05-08T11:01:31.099Z,69.58
2018-05-08T11:02:30.516Z,72.75
2018-05-08T11:03:30.692Z,67.87
2018-05-08T11:04:30.858Z,72.27
2018-05-08T11:08:13.339Z,68.85
2018-05-08T11:09:13.399Z,69.58
2018-05-08T11:10:20.727Z,77.39
2018-05-08T11:11:13.799Z,84.96
2018-05-08T11:12:13.938Z,70.80
2018-05-08T11:13:14.138Z,87.40
2018-05-08T11:14:14.558Z,76.42
2018-05-08T11:15:14.424Z,77.64
2018-05-08T11:16:14.588Z,69.82
2018-05-08T11:17:14.786Z,70.07
2018-05-08T11:18:23.695Z,81.54
2018-05-08T11:19:15.117Z,76.66
2018-05-08T11:20:15.389Z,77.15
2018-05-08T11:21:16.012Z,83.74
2018-05-08T11:22:15.844Z,79.59
2018-05-08T11:23:15.777Z,73.97
2018-05-08T11:24:16.128Z,69.34
2018-05-08T11:25:16.323Z,73.24
2018-05-08T11:26:16.276Z,64.94
2018-05-08T11:27:16.497Z,71.53
2018-05-08T11:28:16.736Z,69.09
2018-05-08T11:29:17.209Z,74.22
2018-05-08T11:30:16.958Z,71.53
2018-05-08T11:31:17.125Z,73.00
2018-05-08T11:32:17.289Z,75.93
2018-05-08T11:33:25.467Z,79.10
2018-05-08T11:34:17.602Z,70.07
2018-05-08T11:35:17.774Z,68.85
2018-05-08T11:36:17.956Z,79.10
2018-05-08T11:37:18.118Z,77.39
2018-05-08T11:38:18.287Z,71.04
2018-05-08T11:39:18.818Z,76.66
2018-05-08T11:40:26.260Z,77.15
2018-05-08T11:41:18.676Z,67.87
2018-05-08T11:42:19.717Z,71.29
2018-05-08T11:43:19.013Z,75.93
2018-05-08T11:44:19.210Z,65.43
2018-05-08T11:45:19.385Z,73.97
2018-05-08T11:46:19.545Z,68.85
2018-05-08T11:47:19.713Z,73.00
2018-05-08T11:48:19.988Z,69.58
2018-05-08T11:49:20.611Z,70.31
2018-05-08T11:50:20.503Z,78.13
2018-05-08T11:53:55.162Z,78.37
2018-05-08T11:55:01.776Z,77.39
2018-05-08T11:55:54.572Z,82.03
2018-05-08T11:56:57.532Z,88.13
2018-05-08T11:57:55.118Z,70.80
2018-05-08T11:58:55.162Z,70.56
2018-05-08T11:59:55.369Z,75.68
2018-05-08T12:01:04.548Z,83.98
2018-05-08T12:01:55.647Z,74.46
2018-05-08T12:02:56.475Z,72.27
2018-05-08T12:03:56.189Z,79.83
2018-05-08T12:04:56.148Z,75.68
2018-05-08T12:05:56.300Z,77.15
2018-05-08T12:06:56.493Z,71.29
2018-05-08T12:07:56.661Z,80.81
2018-05-08T12:08:56.828Z,70.31
2018-05-08T12:10:04.194Z,75.44
2018-05-08T12:10:57.204Z,71.53
2018-05-08T12:11:57.903Z,72.27
2018-05-08T12:13:05.477Z,69.09
2018-05-08T12:13:57.641Z,82.03
2018-05-08T12:14:57.816Z,80.81
2018-05-08T12:15:57.991Z,72.02
2018-05-08T12:16:58.155Z,70.07
2018-05-08T12:17:58.323Z,72.75
2018-05-08T12:18:59.030Z,73.97
2018-05-08T12:19:58.708Z,72.02
2018-05-08T12:20:58.883Z,75.44
2018-05-08T12:22:07.029Z,73.24
2018-05-08T12:22:59.191Z,61.77
2018-05-08T12:23:59.382Z,68.12
2018-05-08T12:24:59.555Z,66.41
2018-05-08T12:25:59.958Z,74.46
2018-05-08T12:27:00.137Z,77.88
2018-05-08T12:28:00.134Z,69.82
2018-05-08T12:29:00.243Z,65.67
2018-05-08T12:30:00.419Z,64.70
2018-05-08T12:31:00.578Z,67.87
2018-05-08T12:32:00.792Z,79.35
2018-05-08T12:33:00.925Z,73.97
2018-05-08T12:34:01.095Z,63.48
2018-05-08T12:35:01.267Z,71.29
2018-05-08T12:36:01.444Z,74.46
2018-05-08T12:39:51.056Z,76.66
2018-05-08T12:40:44.135Z,70.80
2018-05-08T12:41:44.397Z,70.80
2018-05-08T12:42:44.519Z,73.24
2018-05-08T12:43:45.260Z,72.27
2018-05-08T12:44:47.237Z,68.12
2018-05-08T12:45:45.054Z,66.65
2018-05-08T12:46:45.082Z,66.65
2018-05-08T12:47:47.262Z,62.99
2018-05-08T12:48:45.458Z,71.78
2018-05-08T12:49:49.776Z,70.56
2018-05-08T12:50:47.049Z,69.34
2018-05-08T12:51:47.902Z,67.14
2018-05-08T12:52:46.357Z,72.27
2018-05-08T12:56:18.859Z,78.13
2018-05-08T12:57:19.022Z,76.42
2018-05-08T12:58:19.191Z,77.15
2018-05-08T12:59:19.353Z,75.68
2018-05-08T13:00:19.533Z,73.00
2018-05-08T13:01:20.439Z,69.34
2018-05-08T13:02:19.855Z,71.04
2018-05-08T13:03:20.032Z,67.38
2018-05-08T13:04:20.201Z,70.56
2018-05-08T13:05:20.391Z,70.31
2018-05-08T13:06:28.498Z,65.92
2018-05-08T13:07:20.653Z,69.82
2018-05-08T13:08:20.821Z,78.37
2018-05-08T13:09:21.004Z,76.42
2018-05-08T13:10:21.178Z,77.64
2018-05-08T13:11:21.392Z,73.24
2018-05-08T13:12:29.703Z,69.09
2018-05-08T13:13:22.357Z,67.87
2018-05-08T13:14:21.885Z,72.51
2018-05-08T13:15:23.513Z,68.12
2018-05-08T13:16:22.190Z,76.90
2018-05-08T13:17:22.393Z,72.27
2018-05-08T13:18:22.781Z,69.82
2018-05-08T13:19:27.062Z,70.31
2018-05-08T13:20:24.314Z,75.20
2018-05-08T13:21:24.203Z,77.64
2018-05-08T13:22:23.254Z,74.46
2018-05-08T13:25:56.680Z,70.31
2018-05-08T13:26:56.915Z,89.60
2018-05-08T13:27:57.130Z,71.04
2018-05-08T13:29:04.369Z,73.49
2018-05-08T13:29:57.284Z,72.75
2018-05-08T13:30:57.515Z,75.68
2018-05-08T13:34:30.190Z,74.46
2018-05-08T13:35:30.359Z,79.10
2018-05-08T13:36:31.354Z,74.71
2018-05-08T13:37:30.759Z,73.24
2018-05-08T13:38:30.930Z,67.63
2018-05-08T13:39:31.102Z,73.73
2018-05-08T13:40:31.271Z,79.59
2018-05-08T13:41:31.442Z,75.68
2018-05-08T13:42:31.631Z,76.42
2018-05-08T13:46:14.074Z,78.61
2018-05-08T13:47:14.930Z,72.27
2018-05-08T13:48:14.407Z,80.08
2018-05-08T13:49:14.585Z,75.20
2018-05-08T13:50:14.691Z,74.95
2018-05-08T13:51:14.862Z,72.02
2018-05-08T13:52:15.034Z,76.66
2018-05-08T13:53:15.205Z,74.46
2018-05-08T13:54:15.376Z,75.20
2018-05-08T13:55:15.545Z,76.66
2018-05-08T13:56:15.708Z,78.13
2018-05-08T13:57:15.879Z,72.02
2018-05-08T13:58:16.051Z,72.02
2018-05-08T13:59:16.270Z,75.68
2018-05-08T14:02:58.668Z,79.59
2018-05-08T14:03:58.841Z,76.42
2018-05-08T14:04:59.012Z,78.86
2018-05-08T14:05:59.181Z,83.50
2018-05-08T14:06:59.358Z,81.54
2018-05-08T14:08:00.032Z,75.68
2018-05-08T14:08:59.700Z,73.24
2018-05-08T14:09:59.876Z,70.31
2018-05-08T14:11:00.046Z,74.95
2018-05-08T14:12:00.214Z,78.86
2018-05-08T14:13:00.454Z,73.49
2018-05-08T14:14:00.561Z,75.20
2018-05-08T14:15:00.726Z,75.20
2018-05-08T14:16:00.897Z,78.13
2018-05-08T14:19:43.880Z,67.63
2018-05-08T14:20:44.055Z,73.49
2018-05-08T14:21:44.225Z,73.97
2018-05-08T14:22:44.403Z,68.12
2018-05-08T14:23:44.551Z,71.78
2018-05-08T14:24:52.801Z,67.14
2018-05-08T14:25:44.900Z,70.07
2018-05-08T14:26:45.105Z,68.36
2018-05-08T14:27:45.246Z,69.09
2018-05-08T14:28:45.415Z,66.16
2018-05-08T14:29:45.581Z,77.39
2018-05-08T14:30:45.788Z,74.95
2018-05-08T14:31:45.986Z,71.78
2018-05-08T14:32:46.123Z,66.65
2018-05-08T14:33:54.421Z,73.24
2018-05-08T14:34:46.461Z,69.82
2018-05-08T14:35:46.680Z,72.02
2018-05-08T14:36:46.847Z,79.83
2018-05-08T14:37:47.009Z,73.24
2018-05-08T14:38:47.195Z,65.67
2018-05-08T14:39:47.385Z,69.82
2018-05-08T14:40:47.631Z,80.57
2018-05-08T14:41:47.755Z,72.27
2018-05-08T14:42:47.925Z,73.97
2018-05-08T14:46:30.356Z,70.56
2018-05-08T14:47:30.527Z,67.63
2018-05-08T14:48:30.699Z,69.34
2018-05-08T14:49:30.967Z,70.56
2018-05-08T14:50:31.114Z,72.02
2018-05-08T14:51:31.172Z,70.31
2018-05-08T14:52:31.349Z,78.37
2018-05-08T14:53:39.482Z,75.93
2018-05-08T14:54:31.641Z,72.27
2018-05-08T14:55:31.873Z,82.76
2018-05-08T14:56:31.925Z,67.87
2018-05-08T14:57:32.791Z,69.09
2018-05-08T14:58:32.213Z,71.04
2018-05-08T14:59:32.381Z,70.31
2018-05-08T15:00:32.562Z,71.04
2018-05-08T15:01:32.733Z,72.27
2018-05-08T15:02:32.899Z,79.35
2018-05-08T15:03:33.074Z,67.87
2018-05-08T15:07:16.542Z,73.00
2018-05-08T15:08:24.508Z,68.85
2018-05-08T15:09:16.872Z,65.67
2018-05-08T15:10:17.051Z,71.04